sensor_id;sensor_type;location;lat;lon;timestamp;pressure;altitude;pressure_sealevel;temperature;humidity
72857;BME280;62742;52.136;4.500;2023-04-23T00:01:38;100787.22;;;6.55;94.30
72857;BME280;62742;52.136;4.500;2023-04-23T00:04:07;100787.22;;;6.49;94.43
72857;BME280;62742;52.136;4.500;2023-04-23T00:06:34;100791.56;;;6.52;94.65
72857;BME280;62742;52.136;4.500;2023-04-23T00:09:00;100795.91;;;6.45;94.11
72857;BME280;62742;52.136;4.500;2023-04-23T00:11:28;100789.81;;;6.43;94.42
72857;BME280;62742;52.136;4.500;2023-04-23T00:13:55;100782.00;;;6.55;94.57
72857;BME280;62742;52.136;4.500;2023-04-23T00:16:21;100782.00;;;6.49;94.24
72857;BME280;62742;52.136;4.500;2023-04-23T00:18:49;100777.63;;;6.44;94.55
72857;BME280;62742;52.136;4.500;2023-04-23T00:21:15;100767.19;;;6.33;94.28
72857;BME280;62742;52.136;4.500;2023-04-23T00:23:42;100772.41;;;6.30;94.38
72857;BME280;62742;52.136;4.500;2023-04-23T00:26:08;100775.91;;;6.36;94.80
72857;BME280;62742;52.136;4.500;2023-04-23T00:28:34;100764.59;;;6.30;94.11
72857;BME280;62742;52.136;4.500;2023-04-23T00:31:00;100768.06;;;6.35;94.44
72857;BME280;62742;52.136;4.500;2023-04-23T00:33:26;100764.59;;;6.39;94.77
72857;BME280;62742;52.136;4.500;2023-04-23T00:35:52;100747.19;;;6.50;94.92
72857;BME280;62742;52.136;4.500;2023-04-23T00:38:19;100750.69;;;6.46;95.01
72857;BME280;62742;52.136;4.500;2023-04-23T00:40:46;100755.88;;;6.52;95.26
72857;BME280;62742;52.136;4.500;2023-04-23T00:43:12;100750.69;;;6.65;95.48
72857;BME280;62742;52.136;4.500;2023-04-23T00:45:40;100742.78;;;6.85;94.97
72857;BME280;62742;52.136;4.500;2023-04-23T00:48:06;100733.16;;;7.07;94.07
72857;BME280;62742;52.136;4.500;2023-04-23T00:50:34;100734.91;;;7.02;93.85
72857;BME280;62742;52.136;4.500;2023-04-23T00:53:02;100728.81;;;7.00;94.31
72857;BME280;62742;52.136;4.500;2023-04-23T00:55:28;100731.47;;;6.92;94.84
72857;BME280;62742;52.136;4.500;2023-04-23T00:57:54;100734.97;;;6.80;94.84
72857;BME280;62742;52.136;4.500;2023-04-23T01:00:21;100729.75;;;6.77;95.24
72857;BME280;62742;52.136;4.500;2023-04-23T01:02:47;100724.53;;;6.69;95.44
72857;BME280;62742;52.136;4.500;2023-04-23T01:05:15;100730.66;;;6.59;94.93
72857;BME280;62742;52.136;4.500;2023-04-23T01:07:43;100730.69;;;6.58;95.13
72857;BME280;62742;52.136;4.500;2023-04-23T01:10:10;100729.78;;;6.59;95.10
72857;BME280;62742;52.136;4.500;2023-04-23T01:12:37;100729.78;;;6.65;96.21
72857;BME280;62742;52.136;4.500;2023-04-23T01:15:04;100721.06;;;6.69;96.13
72857;BME280;62742;52.136;4.500;2023-04-23T01:17:33;100726.28;;;6.75;96.77
72857;BME280;62742;52.136;4.500;2023-04-23T01:19:59;100714.06;;;6.86;96.69
72857;BME280;62742;52.136;4.500;2023-04-23T01:22:25;100710.59;;;6.92;96.89
72857;BME280;62742;52.136;4.500;2023-04-23T01:24:52;100711.44;;;6.86;97.78
72857;BME280;62742;52.136;4.500;2023-04-23T01:27:18;100711.44;;;6.89;97.67
72857;BME280;62742;52.136;4.500;2023-04-23T01:29:44;100712.34;;;6.88;97.98
72857;BME280;62742;52.136;4.500;2023-04-23T01:32:12;100707.97;;;6.81;97.08
72857;BME280;62742;52.136;4.500;2023-04-23T01:34:39;100702.75;;;6.81;97.24
72857;BME280;62742;52.136;4.500;2023-04-23T01:37:07;100704.50;;;6.78;97.08
72857;BME280;62742;52.136;4.500;2023-04-23T01:39:35;100708.00;;;6.78;96.99
72857;BME280;62742;52.136;4.500;2023-04-23T01:42:02;100704.50;;;6.81;96.93
72857;BME280;62742;52.136;4.500;2023-04-23T01:44:28;100702.75;;;6.84;97.55
72857;BME280;62742;52.136;4.500;2023-04-23T01:46:55;100696.50;;;7.28;95.86
72857;BME280;62742;52.136;4.500;2023-04-23T01:49:22;100694.81;;;7.21;96.32
72857;BME280;62742;52.136;4.500;2023-04-23T01:51:48;100693.91;;;7.21;97.03
72857;BME280;62742;52.136;4.500;2023-04-23T01:54:14;100692.13;;;7.35;97.43
72857;BME280;62742;52.136;4.500;2023-04-23T01:56:41;100693.88;;;7.35;98.36
72857;BME280;62742;52.136;4.500;2023-04-23T01:59:07;100697.25;;;7.54;98.33
72857;BME280;62742;52.136;4.500;2023-04-23T02:01:40;100692.97;;;7.42;98.90
72857;BME280;62742;52.136;4.500;2023-04-23T02:04:09;100693.84;;;7.38;99.96
72857;BME280;62742;52.136;4.500;2023-04-23T02:06:36;100691.25;;;7.35;100.00
72857;BME280;62742;52.136;4.500;2023-04-23T02:09:02;100691.25;;;7.36;100.00
72857;BME280;62742;52.136;4.500;2023-04-23T02:11:29;100685.13;;;7.37;100.00
72857;BME280;62742;52.136;4.500;2023-04-23T02:13:55;100679.91;;;7.36;100.00
72857;BME280;62742;52.136;4.500;2023-04-23T02:16:21;100684.28;;;7.37;100.00
72857;BME280;62742;52.136;4.500;2023-04-23T02:18:49;100676.44;;;7.32;100.00
72857;BME280;62742;52.136;4.500;2023-04-23T02:21:15;100680.75;;;7.45;100.00
72857;BME280;62742;52.136;4.500;2023-04-23T02:23:42;100675.50;;;7.44;100.00
72857;BME280;62742;52.136;4.500;2023-04-23T02:26:08;100680.72;;;7.52;100.00
72857;BME280;62742;52.136;4.500;2023-04-23T02:28:34;100671.94;;;7.60;100.00
72857;BME280;62742;52.136;4.500;2023-04-23T02:31:00;100674.59;;;7.53;100.00
72857;BME280;62742;52.136;4.500;2023-04-23T02:33:26;100679.91;;;7.39;100.00
72857;BME280;62742;52.136;4.500;2023-04-23T02:35:52;100685.19;;;7.29;100.00
72857;BME280;62742;52.136;4.500;2023-04-23T02:38:18;100685.16;;;7.33;100.00
72857;BME280;62742;52.136;4.500;2023-04-23T02:40:45;100677.31;;;7.33;100.00
72857;BME280;62742;52.136;4.500;2023-04-23T02:43:11;100680.75;;;7.38;100.00
72857;BME280;62742;52.136;4.500;2023-04-23T02:45:37;100673.84;;;7.30;100.00
72857;BME280;62742;52.136;4.500;2023-04-23T02:48:03;100679.03;;;7.37;100.00
72857;BME280;62742;52.136;4.500;2023-04-23T02:50:29;100683.41;;;7.35;100.00
72857;BME280;62742;52.136;4.500;2023-04-23T02:52:57;100679.91;;;7.37;100.00
72857;BME280;62742;52.136;4.500;2023-04-23T02:55:23;100677.28;;;7.42;100.00
72857;BME280;62742;52.136;4.500;2023-04-23T02:57:51;100687.66;;;7.57;100.00
72857;BME280;62742;52.136;4.500;2023-04-23T03:00:17;100684.13;;;7.60;100.00
72857;BME280;62742;52.136;4.500;2023-04-23T03:02:44;100673.66;;;7.64;100.00
72857;BME280;62742;52.136;4.500;2023-04-23T03:05:10;100672.78;;;7.67;99.05
72857;BME280;62742;52.136;4.500;2023-04-23T03:07:37;100667.47;;;7.75;98.42
72857;BME280;62742;52.136;4.500;2023-04-23T03:10:03;100670.13;;;7.68;98.01
72857;BME280;62742;52.136;4.500;2023-04-23T03:12:30;100665.72;;;7.74;98.25
72857;BME280;62742;52.136;4.500;2023-04-23T03:14:56;100662.28;;;7.70;97.92
72857;BME280;62742;52.136;4.500;2023-04-23T03:17:23;100671.84;;;7.73;97.51
72857;BME280;62742;52.136;4.500;2023-04-23T03:19:49;100670.09;;;7.72;97.69
72857;BME280;62742;52.136;4.500;2023-04-23T03:22:15;100656.09;;;7.79;96.28
72857;BME280;62742;52.136;4.500;2023-04-23T03:24:41;100662.25;;;7.78;96.24
72857;BME280;62742;52.136;4.500;2023-04-23T03:27:07;100664.88;;;7.75;96.99
72857;BME280;62742;52.136;4.500;2023-04-23T03:29:34;100657.84;;;7.83;95.29
72857;BME280;62742;52.136;4.500;2023-04-23T03:32:02;100658.72;;;7.79;95.52
72857;BME280;62742;52.136;4.500;2023-04-23T03:34:28;100653.53;;;7.77;95.89
72857;BME280;62742;52.136;4.500;2023-04-23T03:36:55;100663.22;;;7.60;95.86
72857;BME280;62742;52.136;4.500;2023-04-23T03:39:21;100654.69;;;7.32;97.18
72857;BME280;62742;52.136;4.500;2023-04-23T03:41:47;100659.84;;;7.44;98.70
72857;BME280;62742;52.136;4.500;2023-04-23T03:44:14;100658.97;;;7.46;98.51
72857;BME280;62742;52.136;4.500;2023-04-23T03:46:40;100657.28;;;7.36;98.50
72857;BME280;62742;52.136;4.500;2023-04-23T03:49:07;100659.94;;;7.25;99.63
72857;BME280;62742;52.136;4.500;2023-04-23T03:51:33;100656.47;;;7.23;100.00
72857;BME280;62742;52.136;4.500;2023-04-23T03:53:59;100656.38;;;7.37;100.00
72857;BME280;62742;52.136;4.500;2023-04-23T03:56:25;100645.75;;;7.63;99.70
72857;BME280;62742;52.136;4.500;2023-04-23T03:58:51;100651.03;;;7.59;99.05
72857;BME280;62742;52.136;4.500;2023-04-23T04:01:18;100655.44;;;7.47;99.92
72857;BME280;62742;52.136;4.500;2023-04-23T04:03:44;100663.28;;;7.52;100.00
72857;BME280;62742;52.136;4.500;2023-04-23T04:06:10;100656.31;;;7.48;100.00
72857;BME280;62742;52.136;4.500;2023-04-23T04:08:36;100659.75;;;7.55;100.00
72857;BME280;62742;52.136;4.500;2023-04-23T04:11:02;100654.41;;;7.75;100.00
72857;BME280;62742;52.136;4.500;2023-04-23T04:13:28;100652.69;;;7.71;100.00
72857;BME280;62742;52.136;4.500;2023-04-23T04:15:55;100653.47;;;7.80;100.00
72857;BME280;62742;52.136;4.500;2023-04-23T04:18:21;100656.97;;;7.82;100.00
72857;BME280;62742;52.136;4.500;2023-04-23T04:20:47;100661.31;;;7.82;100.00
72857;BME280;62742;52.136;4.500;2023-04-23T04:23:13;100648.25;;;7.80;100.00
72857;BME280;62742;52.136;4.500;2023-04-23T04:25:39;100660.34;;;7.95;100.00
72857;BME280;62742;52.136;4.500;2023-04-23T04:28:06;100651.63;;;7.96;100.00
72857;BME280;62742;52.136;4.500;2023-04-23T04:30:33;100649.00;;;7.99;100.00
72857;BME280;62742;52.136;4.500;2023-04-23T04:32:59;100640.25;;;8.02;100.00
72857;BME280;62742;52.136;4.500;2023-04-23T04:35:28;100647.16;;;8.11;100.00
72857;BME280;62742;52.136;4.500;2023-04-23T04:37:54;100650.66;;;8.10;100.00
72857;BME280;62742;52.136;4.500;2023-04-23T04:40:20;100649.75;;;8.11;100.00
72857;BME280;62742;52.136;4.500;2023-04-23T04:42:46;100647.94;;;8.19;100.00
72857;BME280;62742;52.136;4.500;2023-04-23T04:45:13;100647.97;;;8.14;100.00
72857;BME280;62742;52.136;4.500;2023-04-23T04:47:39;100647.97;;;8.14;100.00
72857;BME280;62742;52.136;4.500;2023-04-23T04:50:06;100647.91;;;8.23;100.00
72857;BME280;62742;52.136;4.500;2023-04-23T04:52:32;100649.59;;;8.29;100.00
72857;BME280;62742;52.136;4.500;2023-04-23T04:54:59;100632.91;;;8.46;100.00
72857;BME280;62742;52.136;4.500;2023-04-23T04:57:25;100636.47;;;8.34;100.00
72857;BME280;62742;52.136;4.500;2023-04-23T04:59:51;100631.22;;;8.35;100.00
72857;BME280;62742;52.136;4.500;2023-04-23T05:02:18;100635.56;;;8.38;100.00
72857;BME280;62742;52.136;4.500;2023-04-23T05:04:46;100641.66;;;8.37;100.00
72857;BME280;62742;52.136;4.500;2023-04-23T05:07:12;100660.03;;;8.35;100.00
72857;BME280;62742;52.136;4.500;2023-04-23T05:09:39;100653.03;;;8.37;100.00
72857;BME280;62742;52.136;4.500;2023-04-23T05:12:05;100658.28;;;8.33;100.00
72857;BME280;62742;52.136;4.500;2023-04-23T05:14:32;100659.97;;;8.40;100.00
72857;BME280;62742;52.136;4.500;2023-04-23T05:16:58;100659.94;;;8.46;100.00
72857;BME280;62742;52.136;4.500;2023-04-23T05:19:24;100648.56;;;8.49;100.00
72857;BME280;62742;52.136;4.500;2023-04-23T05:21:51;100641.56;;;8.51;100.00
72857;BME280;62742;52.136;4.500;2023-04-23T05:24:17;100647.72;;;8.47;100.00
72857;BME280;62742;52.136;4.500;2023-04-23T05:26:43;100647.66;;;8.54;100.00
72857;BME280;62742;52.136;4.500;2023-04-23T05:29:09;100646.75;;;8.54;100.00
72857;BME280;62742;52.136;4.500;2023-04-23T05:31:40;100642.28;;;8.64;100.00
72857;BME280;62742;52.136;4.500;2023-04-23T05:34:06;100646.41;;;8.85;100.00
72857;BME280;62742;52.136;4.500;2023-04-23T05:36:32;100652.47;;;8.90;100.00
72857;BME280;62742;52.136;4.500;2023-04-23T05:38:59;100644.13;;;9.30;100.00
72857;BME280;62742;52.136;4.500;2023-04-23T05:41:25;100640.59;;;9.90;99.93
72857;BME280;62742;52.136;4.500;2023-04-23T05:43:51;100635.75;;;10.18;95.78
72857;BME280;62742;52.136;4.500;2023-04-23T05:46:17;100642.88;;;10.61;93.88
72857;BME280;62742;52.136;4.500;2023-04-23T05:48:43;100632.97;;;11.18;90.08
72857;BME280;62742;52.136;4.500;2023-04-23T05:51:10;100631.91;;;11.66;86.96
72857;BME280;62742;52.136;4.500;2023-04-23T05:53:36;100631.97;;;12.00;85.37
72857;BME280;62742;52.136;4.500;2023-04-23T05:56:02;100636.69;;;12.56;83.89
72857;BME280;62742;52.136;4.500;2023-04-23T05:58:29;100628.38;;;13.33;79.68
72857;BME280;62742;52.136;4.500;2023-04-23T06:00:55;100625.19;;;13.78;78.37
72857;BME280;62742;52.136;4.500;2023-04-23T06:03:22;100625.94;;;13.81;76.35
72857;BME280;62742;52.136;4.500;2023-04-23T06:05:48;100628.09;;;14.49;75.84
72857;BME280;62742;52.136;4.500;2023-04-23T06:08:14;100635.38;;;14.91;74.17
72857;BME280;62742;52.136;4.500;2023-04-23T06:10:40;100633.97;;;15.29;71.73
72857;BME280;62742;52.136;4.500;2023-04-23T06:13:07;100634.03;;;15.72;70.79
72857;BME280;62742;52.136;4.500;2023-04-23T06:15:33;100624.19;;;15.98;67.98
72857;BME280;62742;52.136;4.500;2023-04-23T06:17:59;100626.25;;;16.12;67.54
72857;BME280;62742;52.136;4.500;2023-04-23T06:20:27;100621.56;;;16.18;68.09
72857;BME280;62742;52.136;4.500;2023-04-23T06:22:55;100604.34;;;16.29;67.26
72857;BME280;62742;52.136;4.500;2023-04-23T06:25:21;100599.81;;;16.51;65.90
72857;BME280;62742;52.136;4.500;2023-04-23T06:27:48;100600.13;;;16.85;66.92
72857;BME280;62742;52.136;4.500;2023-04-23T06:30:15;100588.09;;;16.96;66.90
72857;BME280;62742;52.136;4.500;2023-04-23T06:32:41;100597.03;;;17.13;63.63
72857;BME280;62742;52.136;4.500;2023-04-23T06:35:07;100598.91;;;17.11;64.39
72857;BME280;62742;52.136;4.500;2023-04-23T06:37:33;100603.19;;;17.51;64.27
72857;BME280;62742;52.136;4.500;2023-04-23T06:40:01;100589.94;;;17.32;63.80
72857;BME280;62742;52.136;4.500;2023-04-23T06:42:29;100594.28;;;17.33;63.77
72857;BME280;62742;52.136;4.500;2023-04-23T06:44:56;100590.03;;;17.48;63.77
72857;BME280;62742;52.136;4.500;2023-04-23T06:47:24;100587.75;;;17.77;60.92
72857;BME280;62742;52.136;4.500;2023-04-23T06:49:50;100590.50;;;17.75;61.50
72857;BME280;62742;52.136;4.500;2023-04-23T06:52:20;100586.28;;;17.52;62.31
72857;BME280;62742;52.136;4.500;2023-04-23T06:54:46;100583.00;;;18.19;61.26
72857;BME280;62742;52.136;4.500;2023-04-23T06:57:12;100584.59;;;18.56;59.35
72857;BME280;62742;52.136;4.500;2023-04-23T06:59:38;100578.63;;;18.35;57.50
72857;BME280;62742;52.136;4.500;2023-04-23T07:02:06;100583.09;;;18.68;59.55
72857;BME280;62742;52.136;4.500;2023-04-23T07:04:33;100584.88;;;18.85;58.71
72857;BME280;62742;52.136;4.500;2023-04-23T07:07:00;100579.16;;;18.75;60.00
72857;BME280;62742;52.136;4.500;2023-04-23T07:09:28;100581.00;;;18.57;58.96
72857;BME280;62742;52.136;4.500;2023-04-23T07:11:54;100577.50;;;18.39;59.07
72857;BME280;62742;52.136;4.500;2023-04-23T07:14:20;100578.47;;;18.21;60.75
72857;BME280;62742;52.136;4.500;2023-04-23T07:16:46;100578.16;;;18.27;60.20
72857;BME280;62742;52.136;4.500;2023-04-23T07:19:13;100573.44;;;18.49;58.40
72857;BME280;62742;52.136;4.500;2023-04-23T07:21:40;100572.88;;;18.94;59.55
72857;BME280;62742;52.136;4.500;2023-04-23T07:24:06;100571.50;;;18.86;58.31
72857;BME280;62742;52.136;4.500;2023-04-23T07:26:33;100579.16;;;18.93;58.71
72857;BME280;62742;52.136;4.500;2023-04-23T07:29:00;100569.44;;;18.92;59.56
72857;BME280;62742;52.136;4.500;2023-04-23T07:31:27;100568.59;;;18.91;57.06
72857;BME280;62742;52.136;4.500;2023-04-23T07:33:54;100569.59;;;18.88;56.85
72857;BME280;62742;52.136;4.500;2023-04-23T07:36:21;100562.16;;;18.62;59.73
72857;BME280;62742;52.136;4.500;2023-04-23T07:38:47;100564.06;;;18.76;58.83
72857;BME280;62742;52.136;4.500;2023-04-23T07:41:13;100553.22;;;18.63;56.44
72857;BME280;62742;52.136;4.500;2023-04-23T07:43:41;100557.69;;;18.62;58.64
72857;BME280;62742;52.136;4.500;2023-04-23T07:46:07;100555.34;;;19.05;59.80
72857;BME280;62742;52.136;4.500;2023-04-23T07:48:34;100550.94;;;19.04;57.60
72857;BME280;62742;52.136;4.500;2023-04-23T07:51:01;100545.88;;;19.32;57.75
72857;BME280;62742;52.136;4.500;2023-04-23T07:53:28;100553.00;;;18.83;56.20
72857;BME280;62742;52.136;4.500;2023-04-23T07:55:55;100547.94;;;19.27;57.82
72857;BME280;62742;52.136;4.500;2023-04-23T07:58:22;100546.25;;;19.72;57.19
72857;BME280;62742;52.136;4.500;2023-04-23T08:00:49;100551.16;;;19.63;57.36
72857;BME280;62742;52.136;4.500;2023-04-23T08:03:16;100547.06;;;19.58;55.65
72857;BME280;62742;52.136;4.500;2023-04-23T08:05:42;100563.06;;;19.42;56.30
72857;BME280;62742;52.136;4.500;2023-04-23T08:08:09;100558.59;;;19.27;58.32
72857;BME280;62742;52.136;4.500;2023-04-23T08:10:36;100552.78;;;19.20;56.16
72857;BME280;62742;52.136;4.500;2023-04-23T08:13:04;100542.41;;;19.61;58.05
72857;BME280;62742;52.136;4.500;2023-04-23T08:15:33;100534.34;;;19.93;55.88
72857;BME280;62742;52.136;4.500;2023-04-23T08:18:02;100530.41;;;19.85;55.01
72857;BME280;62742;52.136;4.500;2023-04-23T08:20:29;100534.19;;;20.11;56.97
72857;BME280;62742;52.136;4.500;2023-04-23T08:22:56;100526.53;;;19.90;55.26
72857;BME280;62742;52.136;4.500;2023-04-23T08:25:23;100531.78;;;19.92;55.35
72857;BME280;62742;52.136;4.500;2023-04-23T08:27:49;100533.19;;;19.67;54.82
72857;BME280;62742;52.136;4.500;2023-04-23T08:30:15;100530.31;;;19.86;57.94
72857;BME280;62742;52.136;4.500;2023-04-23T08:32:42;100536.03;;;19.80;56.40
72857;BME280;62742;52.136;4.500;2023-04-23T08:35:08;100534.19;;;20.25;55.15
72857;BME280;62742;52.136;4.500;2023-04-23T08:37:34;100527.72;;;20.58;56.94
72857;BME280;62742;52.136;4.500;2023-04-23T08:40:01;100534.59;;;20.77;52.84
72857;BME280;62742;52.136;4.500;2023-04-23T08:42:37;100530.41;;;20.72;51.06
72857;BME280;62742;52.136;4.500;2023-04-23T08:45:09;100537.59;;;20.72;51.49
72857;BME280;62742;52.136;4.500;2023-04-23T08:47:36;100537.47;;;20.88;55.08
72857;BME280;62742;52.136;4.500;2023-04-23T08:50:09;100546.66;;;21.11;54.14
72857;BME280;62742;52.136;4.500;2023-04-23T08:52:40;100537.88;;;20.67;54.23
72857;BME280;62742;52.136;4.500;2023-04-23T08:55:10;100540.91;;;20.76;54.23
72857;BME280;62742;52.136;4.500;2023-04-23T08:57:40;100542.53;;;20.92;53.77
72857;BME280;62742;52.136;4.500;2023-04-23T09:00:10;100544.81;;;20.70;52.03
72857;BME280;62742;52.136;4.500;2023-04-23T09:02:38;100533.28;;;20.69;51.91
72857;BME280;62742;52.136;4.500;2023-04-23T09:05:07;100538.19;;;20.32;54.79
72857;BME280;62742;52.136;4.500;2023-04-23T09:07:34;100536.50;;;20.31;54.19
72857;BME280;62742;52.136;4.500;2023-04-23T09:10:01;100535.28;;;20.66;53.64
72857;BME280;62742;52.136;4.500;2023-04-23T09:12:29;100527.81;;;20.85;53.57
72857;BME280;62742;52.136;4.500;2023-04-23T09:14:57;100522.56;;;21.25;53.40
72857;BME280;62742;52.136;4.500;2023-04-23T09:17:27;100518.34;;;21.63;53.31
72857;BME280;62742;52.136;4.500;2023-04-23T09:19:54;100514.53;;;21.93;50.06
72857;BME280;62742;52.136;4.500;2023-04-23T09:25:13;100523.47;;;21.11;49.62
72857;BME280;62742;52.136;4.500;2023-04-23T09:27:42;100520.97;;;20.52;51.03
72857;BME280;62742;52.136;4.500;2023-04-23T09:30:10;100522.19;;;20.61;51.24
72857;BME280;62742;52.136;4.500;2023-04-23T09:32:39;100516.97;;;20.45;55.16
72857;BME280;62742;52.136;4.500;2023-04-23T09:35:10;100510.50;;;21.05;53.65
72857;BME280;62742;52.136;4.500;2023-04-23T09:37:42;100512.31;;;21.46;50.85
72857;BME280;62742;52.136;4.500;2023-04-23T09:40:15;100507.19;;;21.29;49.60
72857;BME280;62742;52.136;4.500;2023-04-23T09:42:48;100512.72;;;21.26;50.29
72857;BME280;62742;52.136;4.500;2023-04-23T09:45:16;100518.28;;;20.81;49.81
72857;BME280;62742;52.136;4.500;2023-04-23T09:50:38;100518.59;;;21.45;51.35
72857;BME280;62742;52.136;4.500;2023-04-23T09:53:07;100503.84;;;20.98;49.42
72857;BME280;62742;52.136;4.500;2023-04-23T09:55:34;100507.91;;;21.45;50.77
72857;BME280;62742;52.136;4.500;2023-04-23T09:58:22;100496.34;;;21.85;50.16
72857;BME280;62742;52.136;4.500;2023-04-23T10:00:49;100502.13;;;22.04;46.71
72857;BME280;62742;52.136;4.500;2023-04-23T10:03:17;100494.72;;;21.82;47.14
72857;BME280;62742;52.136;4.500;2023-04-23T10:05:53;100493.56;;;21.87;48.70
72857;BME280;62742;52.136;4.500;2023-04-23T10:08:21;100482.69;;;21.62;49.03
72857;BME280;62742;52.136;4.500;2023-04-23T10:10:48;100495.97;;;21.37;48.50
72857;BME280;62742;52.136;4.500;2023-04-23T10:13:17;100485.31;;;21.09;49.92
72857;BME280;62742;52.136;4.500;2023-04-23T10:15:45;100487.38;;;21.19;47.36
72857;BME280;62742;52.136;4.500;2023-04-23T10:18:17;100485.41;;;21.08;50.42
72857;BME280;62742;52.136;4.500;2023-04-23T10:20:46;100491.88;;;21.18;51.35
72857;BME280;62742;52.136;4.500;2023-04-23T10:23:14;100489.91;;;20.66;49.78
72857;BME280;62742;52.136;4.500;2023-04-23T10:25:44;100487.00;;;20.83;49.95
72857;BME280;62742;52.136;4.500;2023-04-23T10:28:14;100482.53;;;20.69;50.01
72857;BME280;62742;52.136;4.500;2023-04-23T10:30:46;100481.19;;;20.77;50.20
72857;BME280;62742;52.136;4.500;2023-04-23T10:33:14;100474.53;;;20.69;50.95
72857;BME280;62742;52.136;4.500;2023-04-23T10:35:42;100467.75;;;21.05;49.66
72857;BME280;62742;52.136;4.500;2023-04-23T10:38:09;100459.19;;;21.00;48.85
72857;BME280;62742;52.136;4.500;2023-04-23T10:40:36;100465.25;;;21.17;49.92
72857;BME280;62742;52.136;4.500;2023-04-23T10:43:04;100453.84;;;21.00;49.20
72857;BME280;62742;52.136;4.500;2023-04-23T10:45:30;100452.06;;;21.41;50.15
72857;BME280;62742;52.136;4.500;2023-04-23T10:47:57;100456.47;;;21.15;48.89
72857;BME280;62742;52.136;4.500;2023-04-23T10:52:51;100450.03;;;21.04;51.00
72857;BME280;62742;52.136;4.500;2023-04-23T10:55:22;100436.50;;;20.93;48.95
72857;BME280;62742;52.136;4.500;2023-04-23T10:58:08;100439.34;;;21.04;50.04
72857;BME280;62742;52.136;4.500;2023-04-23T11:06:07;100428.13;;;20.85;48.77
72857;BME280;62742;52.136;4.500;2023-04-23T11:08:34;100433.72;;;20.53;49.21
72857;BME280;62742;52.136;4.500;2023-04-23T11:11:02;100424.00;;;20.66;49.48
72857;BME280;62742;52.136;4.500;2023-04-23T11:19:01;100414.22;;;20.80;50.43
72857;BME280;62742;52.136;4.500;2023-04-23T11:24:30;100401.38;;;19.87;49.31
72857;BME280;62742;52.136;4.500;2023-04-23T11:26:58;100414.50;;;19.76;52.23
72857;BME280;62742;52.136;4.500;2023-04-23T11:29:26;100401.81;;;19.79;50.40
72857;BME280;62742;52.136;4.500;2023-04-23T11:31:53;100396.97;;;19.86;49.93
72857;BME280;62742;52.136;4.500;2023-04-23T11:34:21;100397.38;;;19.94;51.52
72857;BME280;62742;52.136;4.500;2023-04-23T11:36:48;100397.53;;;19.91;50.18
72857;BME280;62742;52.136;4.500;2023-04-23T11:39:21;100386.31;;;20.01;48.94
72857;BME280;62742;52.136;4.500;2023-04-23T11:41:51;100380.13;;;19.86;50.43
72857;BME280;62742;52.136;4.500;2023-04-23T11:44:18;100390.84;;;20.27;50.39
72857;BME280;62742;52.136;4.500;2023-04-23T11:46:46;100379.06;;;20.17;50.45
72857;BME280;62742;52.136;4.500;2023-04-23T11:49:14;100377.53;;;20.13;50.42
72857;BME280;62742;52.136;4.500;2023-04-23T11:51:42;100365.84;;;20.57;51.75
72857;BME280;62742;52.136;4.500;2023-04-23T11:54:09;100357.22;;;20.93;50.53
72857;BME280;62742;52.136;4.500;2023-04-23T11:56:36;100362.31;;;20.57;48.20
72857;BME280;62742;52.136;4.500;2023-04-23T11:59:04;100357.03;;;20.69;49.15
72857;BME280;62742;52.136;4.500;2023-04-23T12:01:41;100347.56;;;21.18;49.82
72857;BME280;62742;52.136;4.500;2023-04-23T12:04:09;100337.59;;;21.07;50.06
72857;BME280;62742;52.136;4.500;2023-04-23T12:06:36;100339.56;;;21.44;48.40
72857;BME280;62742;52.136;4.500;2023-04-23T12:09:02;100333.59;;;21.40;46.47
72857;BME280;62742;52.136;4.500;2023-04-23T12:11:29;100343.50;;;21.38;47.05
72857;BME280;62742;52.136;4.500;2023-04-23T12:13:56;100326.94;;;21.33;46.06
72857;BME280;62742;52.136;4.500;2023-04-23T12:16:32;100335.09;;;21.57;45.26
72857;BME280;62742;52.136;4.500;2023-04-23T12:19:04;100331.22;;;21.74;45.05
72857;BME280;62742;52.136;4.500;2023-04-23T12:21:33;100331.44;;;21.84;47.19
72857;BME280;62742;52.136;4.500;2023-04-23T12:24:01;100321.16;;;21.39;46.64
72857;BME280;62742;52.136;4.500;2023-04-23T12:26:29;100319.44;;;21.38;46.52
72857;BME280;62742;52.136;4.500;2023-04-23T12:28:57;100309.63;;;21.13;43.67
72857;BME280;62742;52.136;4.500;2023-04-23T12:31:25;100310.22;;;21.04;48.58
72857;BME280;62742;52.136;4.500;2023-04-23T12:34:11;100306.16;;;21.11;46.12
72857;BME280;62742;52.136;4.500;2023-04-23T12:37:05;100310.72;;;21.49;47.09
72857;BME280;62742;52.136;4.500;2023-04-23T12:39:32;100297.22;;;21.38;45.94
72857;BME280;62742;52.136;4.500;2023-04-23T12:42:04;100295.91;;;21.43;45.98
72857;BME280;62742;52.136;4.500;2023-04-23T12:44:33;100288.13;;;21.27;46.36
72857;BME280;62742;52.136;4.500;2023-04-23T12:47:01;100299.56;;;21.42;49.08
72857;BME280;62742;52.136;4.500;2023-04-23T12:49:30;100294.25;;;21.68;46.05
72857;BME280;62742;52.136;4.500;2023-04-23T12:51:59;100303.84;;;21.32;46.77
72857;BME280;62742;52.136;4.500;2023-04-23T12:54:27;100294.56;;;21.25;49.88
72857;BME280;62742;52.136;4.500;2023-04-23T12:56:56;100295.16;;;21.16;49.10
72857;BME280;62742;52.136;4.500;2023-04-23T12:59:23;100315.75;;;20.33;47.67
72857;BME280;62742;52.136;4.500;2023-04-23T13:01:50;100337.72;;;19.67;54.28
72857;BME280;62742;52.136;4.500;2023-04-23T13:04:16;100334.69;;;19.14;60.16
72857;BME280;62742;52.136;4.500;2023-04-23T13:06:42;100328.13;;;18.59;62.11
72857;BME280;62742;52.136;4.500;2023-04-23T13:09:09;100335.78;;;18.33;63.79
72857;BME280;62742;52.136;4.500;2023-04-23T13:11:39;100329.06;;;18.42;62.62
72857;BME280;62742;52.136;4.500;2023-04-23T13:14:06;100335.69;;;18.35;64.16
72857;BME280;62742;52.136;4.500;2023-04-23T13:16:33;100327.78;;;18.01;63.57